sensor_id;sensor_type;location;lat;lon;timestamp;P1;durP1;ratioP1;P2;durP2;ratioP2
25988;SDS011;13778;48.236;9.894;2024-03-23T00:53:17;5.90;;;4.85;;
25988;SDS011;13778;48.236;9.894;2024-03-23T00:56:07;11.27;;;5.28;;
25988;SDS011;13778;48.236;9.894;2024-03-23T00:58:57;7.95;;;4.55;;
25988;SDS011;13778;48.236;9.894;2024-03-23T01:01:47;8.02;;;5.43;;
25988;SDS011;13778;48.236;9.894;2024-03-23T01:04:37;10.10;;;5.78;;
25988;SDS011;13778;48.236;9.894;2024-03-23T01:07:27;5.70;;;5.10;;
25988;SDS011;13778;48.236;9.894;2024-03-23T01:10:19;7.35;;;5.30;;
25988;SDS011;13778;48.236;9.894;2024-03-23T01:13:08;8.57;;;4.85;;
25988;SDS011;13778;48.236;9.894;2024-03-23T01:15:59;10.57;;;5.20;;
25988;SDS011;13778;48.236;9.894;2024-03-23T01:18:48;7.65;;;5.95;;
25988;SDS011;13778;48.236;9.894;2024-03-23T01:21:38;6.38;;;5.05;;
25988;SDS011;13778;48.236;9.894;2024-03-23T01:24:27;7.53;;;5.32;;
25988;SDS011;13778;48.236;9.894;2024-03-23T01:27:19;6.53;;;5.03;;
25988;SDS011;13778;48.236;9.894;2024-03-23T01:30:09;6.75;;;4.70;;
25988;SDS011;13778;48.236;9.894;2024-03-23T01:32:59;7.65;;;4.95;;
25988;SDS011;13778;48.236;9.894;2024-03-23T01:35:50;7.80;;;5.40;;
25988;SDS011;13778;48.236;9.894;2024-03-23T01:38:39;10.77;;;4.95;;
25988;SDS011;13778;48.236;9.894;2024-03-23T01:41:30;5.18;;;4.38;;
25988;SDS011;13778;48.236;9.894;2024-03-23T01:44:21;7.95;;;4.80;;
25988;SDS011;13778;48.236;9.894;2024-03-23T01:47:11;6.60;;;4.50;;
25988;SDS011;13778;48.236;9.894;2024-03-23T01:50:01;5.50;;;4.50;;
25988;SDS011;13778;48.236;9.894;2024-03-23T01:52:51;6.95;;;4.10;;
25988;SDS011;13778;48.236;9.894;2024-03-23T01:55:41;8.90;;;4.80;;
25988;SDS011;13778;48.236;9.894;2024-03-23T01:58:32;9.95;;;4.55;;
25988;SDS011;13778;48.236;9.894;2024-03-23T02:01:23;5.20;;;4.53;;
25988;SDS011;13778;48.236;9.894;2024-03-23T02:07:02;6.72;;;4.95;;
25988;SDS011;13778;48.236;9.894;2024-03-23T02:09:55;8.15;;;4.85;;
25988;SDS011;13778;48.236;9.894;2024-03-23T02:12:45;10.32;;;5.07;;
25988;SDS011;13778;48.236;9.894;2024-03-23T02:15:36;5.20;;;4.70;;
25988;SDS011;13778;48.236;9.894;2024-03-23T02:18:26;10.95;;;5.53;;
25988;SDS011;13778;48.236;9.894;2024-03-23T02:21:17;7.82;;;4.68;;
25988;SDS011;13778;48.236;9.894;2024-03-23T02:24:08;5.68;;;4.85;;
25988;SDS011;13778;48.236;9.894;2024-03-23T02:29:47;6.80;;;4.85;;
25988;SDS011;13778;48.236;9.894;2024-03-23T02:32:38;6.15;;;5.40;;
25988;SDS011;13778;48.236;9.894;2024-03-23T02:35:27;5.72;;;4.55;;
25988;SDS011;13778;48.236;9.894;2024-03-23T02:38:18;9.05;;;4.90;;
25988;SDS011;13778;48.236;9.894;2024-03-23T02:41:08;5.88;;;4.63;;
25988;SDS011;13778;48.236;9.894;2024-03-23T02:43:59;5.20;;;4.30;;
25988;SDS011;13778;48.236;9.894;2024-03-23T02:46:48;7.22;;;4.95;;
25988;SDS011;13778;48.236;9.894;2024-03-23T02:49:38;13.90;;;4.80;;
25988;SDS011;13778;48.236;9.894;2024-03-23T02:52:28;7.85;;;4.53;;
25988;SDS011;13778;48.236;9.894;2024-03-23T02:55:18;6.45;;;4.70;;
25988;SDS011;13778;48.236;9.894;2024-03-23T02:58:09;6.55;;;4.85;;
25988;SDS011;13778;48.236;9.894;2024-03-23T03:01:00;7.70;;;5.00;;
25988;SDS011;13778;48.236;9.894;2024-03-23T03:03:49;7.63;;;5.00;;
25988;SDS011;13778;48.236;9.894;2024-03-23T03:06:40;6.90;;;5.38;;
25988;SDS011;13778;48.236;9.894;2024-03-23T03:09:30;8.18;;;4.60;;
25988;SDS011;13778;48.236;9.894;2024-03-23T03:12:21;8.23;;;5.50;;
25988;SDS011;13778;48.236;9.894;2024-03-23T03:15:11;6.68;;;5.30;;
25988;SDS011;13778;48.236;9.894;2024-03-23T03:18:02;6.85;;;4.78;;
25988;SDS011;13778;48.236;9.894;2024-03-23T03:20:53;6.22;;;5.05;;
25988;SDS011;13778;48.236;9.894;2024-03-23T03:23:44;7.32;;;4.55;;
25988;SDS011;13778;48.236;9.894;2024-03-23T03:26:34;8.25;;;4.93;;
25988;SDS011;13778;48.236;9.894;2024-03-23T03:29:24;8.48;;;5.00;;
25988;SDS011;13778;48.236;9.894;2024-03-23T03:32:16;5.68;;;4.93;;
25988;SDS011;13778;48.236;9.894;2024-03-23T03:35:06;8.73;;;4.57;;
25988;SDS011;13778;48.236;9.894;2024-03-23T03:37:56;7.43;;;4.75;;
25988;SDS011;13778;48.236;9.894;2024-03-23T03:40:46;7.28;;;3.88;;
25988;SDS011;13778;48.236;9.894;2024-03-23T03:43:36;5.93;;;4.10;;
25988;SDS011;13778;48.236;9.894;2024-03-23T03:46:27;8.35;;;4.57;;
25988;SDS011;13778;48.236;9.894;2024-03-23T03:49:18;6.13;;;4.32;;
25988;SDS011;13778;48.236;9.894;2024-03-23T03:54:59;4.80;;;4.28;;
25988;SDS011;13778;48.236;9.894;2024-03-23T03:57:52;6.90;;;5.03;;
25988;SDS011;13778;48.236;9.894;2024-03-23T04:00:41;6.97;;;4.88;;
25988;SDS011;13778;48.236;9.894;2024-03-23T04:03:32;6.13;;;4.47;;
25988;SDS011;13778;48.236;9.894;2024-03-23T04:06:24;6.13;;;4.95;;
25988;SDS011;13778;48.236;9.894;2024-03-23T04:09:13;5.78;;;5.18;;
25988;SDS011;13778;48.236;9.894;2024-03-23T04:12:04;5.78;;;4.57;;
25988;SDS011;13778;48.236;9.894;2024-03-23T04:14:54;7.45;;;5.15;;
25988;SDS011;13778;48.236;9.894;2024-03-23T04:17:44;6.13;;;4.50;;
25988;SDS011;13778;48.236;9.894;2024-03-23T04:20:35;7.35;;;5.25;;
25988;SDS011;13778;48.236;9.894;2024-03-23T04:23:26;7.28;;;5.13;;
25988;SDS011;13778;48.236;9.894;2024-03-23T04:26:16;5.72;;;4.75;;
25988;SDS011;13778;48.236;9.894;2024-03-23T04:29:06;6.90;;;5.38;;
25988;SDS011;13778;48.236;9.894;2024-03-23T04:31:56;5.72;;;5.13;;
25988;SDS011;13778;48.236;9.894;2024-03-23T04:34:47;6.88;;;5.70;;
25988;SDS011;13778;48.236;9.894;2024-03-23T04:37:37;5.60;;;4.35;;
25988;SDS011;13778;48.236;9.894;2024-03-23T04:40:31;8.90;;;5.00;;
25988;SDS011;13778;48.236;9.894;2024-03-23T04:43:22;5.57;;;4.82;;
25988;SDS011;13778;48.236;9.894;2024-03-23T04:46:12;6.80;;;4.75;;
25988;SDS011;13778;48.236;9.894;2024-03-23T04:49:03;5.65;;;4.78;;
25988;SDS011;13778;48.236;9.894;2024-03-23T04:51:53;6.85;;;5.07;;
25988;SDS011;13778;48.236;9.894;2024-03-23T04:54:44;6.72;;;4.82;;
25988;SDS011;13778;48.236;9.894;2024-03-23T04:57:36;6.22;;;4.60;;
25988;SDS011;13778;48.236;9.894;2024-03-23T05:00:26;8.43;;;4.78;;
25988;SDS011;13778;48.236;9.894;2024-03-23T05:03:15;5.13;;;4.40;;
25988;SDS011;13778;48.236;9.894;2024-03-23T05:06:06;6.72;;;3.95;;
25988;SDS011;13778;48.236;9.894;2024-03-23T05:08:55;8.05;;;4.60;;
25988;SDS011;13778;48.236;9.894;2024-03-23T05:11:46;5.85;;;4.80;;
25988;SDS011;13778;48.236;9.894;2024-03-23T05:14:36;8.13;;;4.40;;
25988;SDS011;13778;48.236;9.894;2024-03-23T05:17:27;4.72;;;4.15;;
25988;SDS011;13778;48.236;9.894;2024-03-23T05:20:18;7.38;;;4.00;;
25988;SDS011;13778;48.236;9.894;2024-03-23T05:23:08;4.90;;;4.00;;
25988;SDS011;13778;48.236;9.894;2024-03-23T05:25:59;7.82;;;4.15;;
25988;SDS011;13778;48.236;9.894;2024-03-23T05:28:48;5.30;;;4.05;;
25988;SDS011;13778;48.236;9.894;2024-03-23T05:31:40;7.78;;;3.92;;
25988;SDS011;13778;48.236;9.894;2024-03-23T05:34:31;7.55;;;4.13;;
25988;SDS011;13778;48.236;9.894;2024-03-23T05:37:21;5.65;;;4.15;;
25988;SDS011;13778;48.236;9.894;2024-03-23T05:40:11;7.60;;;4.13;;
25988;SDS011;13778;48.236;9.894;2024-03-23T05:43:04;5.88;;;4.43;;
25988;SDS011;13778;48.236;9.894;2024-03-23T05:45:54;6.18;;;4.05;;
25988;SDS011;13778;48.236;9.894;2024-03-23T05:48:46;7.72;;;4.13;;
25988;SDS011;13778;48.236;9.894;2024-03-23T05:51:36;7.35;;;3.95;;
25988;SDS011;13778;48.236;9.894;2024-03-23T05:54:25;7.82;;;4.60;;
25988;SDS011;13778;48.236;9.894;2024-03-23T05:57:16;10.35;;;4.70;;
25988;SDS011;13778;48.236;9.894;2024-03-23T06:00:06;5.97;;;3.63;;
25988;SDS011;13778;48.236;9.894;2024-03-23T06:03:00;5.50;;;4.30;;
25988;SDS011;13778;48.236;9.894;2024-03-23T06:05:51;7.40;;;4.47;;
25988;SDS011;13778;48.236;9.894;2024-03-23T06:08:42;7.38;;;5.60;;
25988;SDS011;13778;48.236;9.894;2024-03-23T06:11:31;8.10;;;4.55;;
25988;SDS011;13778;48.236;9.894;2024-03-23T06:14:22;6.47;;;4.38;;
25988;SDS011;13778;48.236;9.894;2024-03-23T06:17:11;5.50;;;4.50;;
25988;SDS011;13778;48.236;9.894;2024-03-23T06:20:03;8.15;;;4.50;;
25988;SDS011;13778;48.236;9.894;2024-03-23T06:22:53;5.28;;;4.32;;
25988;SDS011;13778;48.236;9.894;2024-03-23T06:25:44;6.95;;;4.30;;
25988;SDS011;13778;48.236;9.894;2024-03-23T06:28:33;9.23;;;4.80;;
25988;SDS011;13778;48.236;9.894;2024-03-23T06:31:24;5.15;;;4.10;;
25988;SDS011;13778;48.236;9.894;2024-03-23T06:34:13;6.38;;;4.25;;
25988;SDS011;13778;48.236;9.894;2024-03-23T06:37:04;7.67;;;4.70;;
25988;SDS011;13778;48.236;9.894;2024-03-23T06:39:55;10.57;;;4.10;;
25988;SDS011;13778;48.236;9.894;2024-03-23T06:42:45;12.93;;;5.38;;
25988;SDS011;13778;48.236;9.894;2024-03-23T06:45:34;10.30;;;4.38;;
25988;SDS011;13778;48.236;9.894;2024-03-23T06:48:26;5.60;;;3.90;;
25988;SDS011;13778;48.236;9.894;2024-03-23T06:51:15;9.13;;;4.40;;
25988;SDS011;13778;48.236;9.894;2024-03-23T06:54:06;5.97;;;3.95;;
25988;SDS011;13778;48.236;9.894;2024-03-23T06:56:57;5.80;;;4.93;;
25988;SDS011;13778;48.236;9.894;2024-03-23T07:02:38;11.52;;;3.97;;
25988;SDS011;13778;48.236;9.894;2024-03-23T07:05:27;7.57;;;4.05;;
25988;SDS011;13778;48.236;9.894;2024-03-23T07:08:18;6.40;;;3.92;;
25988;SDS011;13778;48.236;9.894;2024-03-23T07:11:10;5.03;;;3.95;;
25988;SDS011;13778;48.236;9.894;2024-03-23T07:14:02;5.18;;;3.58;;
25988;SDS011;13778;48.236;9.894;2024-03-23T07:16:51;5.60;;;3.80;;
25988;SDS011;13778;48.236;9.894;2024-03-23T07:19:42;3.75;;;2.92;;
25988;SDS011;13778;48.236;9.894;2024-03-23T07:22:32;6.55;;;2.80;;
25988;SDS011;13778;48.236;9.894;2024-03-23T07:25:22;2.67;;;2.42;;
25988;SDS011;13778;48.236;9.894;2024-03-23T07:28:12;3.13;;;2.45;;
25988;SDS011;13778;48.236;9.894;2024-03-23T07:31:04;4.60;;;2.75;;
25988;SDS011;13778;48.236;9.894;2024-03-23T07:33:54;3.55;;;2.75;;
25988;SDS011;13778;48.236;9.894;2024-03-23T07:36:44;5.32;;;3.75;;
25988;SDS011;13778;48.236;9.894;2024-03-23T07:39:34;4.97;;;3.90;;
25988;SDS011;13778;48.236;9.894;2024-03-23T07:42:24;5.45;;;4.40;;
25988;SDS011;13778;48.236;9.894;2024-03-23T07:45:15;6.45;;;5.05;;
25988;SDS011;13778;48.236;9.894;2024-03-23T07:48:07;6.70;;;5.30;;
25988;SDS011;13778;48.236;9.894;2024-03-23T07:51:00;8.32;;;4.25;;
25988;SDS011;13778;48.236;9.894;2024-03-23T07:53:50;5.88;;;3.70;;
25988;SDS011;13778;48.236;9.894;2024-03-23T07:56:41;4.53;;;3.10;;
25988;SDS011;13778;48.236;9.894;2024-03-23T07:59:31;4.78;;;2.78;;
25988;SDS011;13778;48.236;9.894;2024-03-23T08:02:22;3.22;;;2.15;;
25988;SDS011;13778;48.236;9.894;2024-03-23T08:05:14;2.05;;;1.70;;
25988;SDS011;13778;48.236;9.894;2024-03-23T08:08:04;1.63;;;1.30;;
25988;SDS011;13778;48.236;9.894;2024-03-23T08:10:54;1.83;;;1.50;;
25988;SDS011;13778;48.236;9.894;2024-03-23T08:13:44;1.83;;;1.48;;
25988;SDS011;13778;48.236;9.894;2024-03-23T08:16:35;1.33;;;1.23;;
25988;SDS011;13778;48.236;9.894;2024-03-23T08:19:25;2.45;;;0.98;;
25988;SDS011;13778;48.236;9.894;2024-03-23T08:22:16;1.60;;;1.20;;
25988;SDS011;13778;48.236;9.894;2024-03-23T08:25:07;1.67;;;1.23;;
25988;SDS011;13778;48.236;9.894;2024-03-23T08:27:56;2.25;;;1.92;;
25988;SDS011;13778;48.236;9.894;2024-03-23T08:30:46;1.20;;;1.10;;
25988;SDS011;13778;48.236;9.894;2024-03-23T08:33:36;1.10;;;1.00;;
25988;SDS011;13778;48.236;9.894;2024-03-23T08:36:27;2.00;;;1.40;;
25988;SDS011;13778;48.236;9.894;2024-03-23T08:39:19;1.17;;;1.08;;
25988;SDS011;13778;48.236;9.894;2024-03-23T08:42:08;0.90;;;0.90;;
25988;SDS011;13778;48.236;9.894;2024-03-23T08:44:59;2.95;;;0.80;;
25988;SDS011;13778;48.236;9.894;2024-03-23T08:47:48;0.75;;;0.75;;
25988;SDS011;13778;48.236;9.894;2024-03-23T08:50:38;2.13;;;0.98;;
25988;SDS011;13778;48.236;9.894;2024-03-23T08:53:28;0.77;;;0.70;;
25988;SDS011;13778;48.236;9.894;2024-03-23T08:56:20;1.02;;;0.77;;
25988;SDS011;13778;48.236;9.894;2024-03-23T08:59:09;0.57;;;0.57;;
25988;SDS011;13778;48.236;9.894;2024-03-23T09:02:00;0.80;;;0.80;;
25988;SDS011;13778;48.236;9.894;2024-03-23T09:04:49;2.08;;;1.02;;
25988;SDS011;13778;48.236;9.894;2024-03-23T09:07:40;0.40;;;0.40;;
25988;SDS011;13778;48.236;9.894;2024-03-23T09:10:29;0.55;;;0.55;;
25988;SDS011;13778;48.236;9.894;2024-03-23T09:13:21;4.50;;;0.70;;
25988;SDS011;13778;48.236;9.894;2024-03-23T09:16:11;1.57;;;0.90;;
25988;SDS011;13778;48.236;9.894;2024-03-23T09:19:02;2.47;;;1.20;;
25988;SDS011;13778;48.236;9.894;2024-03-23T09:21:51;1.92;;;1.33;;
25988;SDS011;13778;48.236;9.894;2024-03-23T09:24:42;1.52;;;0.82;;
25988;SDS011;13778;48.236;9.894;2024-03-23T09:27:31;0.95;;;0.80;;
25988;SDS011;13778;48.236;9.894;2024-03-23T09:30:23;1.65;;;1.08;;
25988;SDS011;13778;48.236;9.894;2024-03-23T09:36:03;2.45;;;1.33;;
25988;SDS011;13778;48.236;9.894;2024-03-23T09:38:53;2.92;;;1.42;;
25988;SDS011;13778;48.236;9.894;2024-03-23T09:41:42;3.90;;;1.95;;
25988;SDS011;13778;48.236;9.894;2024-03-23T09:44:33;4.18;;;1.48;;
25988;SDS011;13778;48.236;9.894;2024-03-23T09:47:25;4.10;;;1.90;;
25988;SDS011;13778;48.236;9.894;2024-03-23T09:50:16;3.88;;;1.77;;
25988;SDS011;13778;48.236;9.894;2024-03-23T09:53:05;5.78;;;2.38;;
25988;SDS011;13778;48.236;9.894;2024-03-23T09:55:56;4.83;;;1.90;;
25988;SDS011;13778;48.236;9.894;2024-03-23T09:58:46;5.55;;;2.22;;
25988;SDS011;13778;48.236;9.894;2024-03-23T10:01:36;5.35;;;2.65;;
25988;SDS011;13778;48.236;9.894;2024-03-23T10:04:37;3.75;;;2.30;;
25988;SDS011;13778;48.236;9.894;2024-03-23T10:07:27;5.87;;;2.30;;
25988;SDS011;13778;48.236;9.894;2024-03-23T10:10:19;5.75;;;2.72;;
25988;SDS011;13778;48.236;9.894;2024-03-23T10:13:08;3.47;;;2.40;;
25988;SDS011;13778;48.236;9.894;2024-03-23T10:15:59;5.55;;;2.40;;
25988;SDS011;13778;48.236;9.894;2024-03-23T10:18:48;3.58;;;2.25;;
25988;SDS011;13778;48.236;9.894;2024-03-23T10:21:40;3.58;;;2.80;;
25988;SDS011;13778;48.236;9.894;2024-03-23T10:24:41;6.95;;;2.40;;
25988;SDS011;13778;48.236;9.894;2024-03-23T10:27:31;5.00;;;2.45;;
25988;SDS011;13778;48.236;9.894;2024-03-23T10:30:21;4.63;;;2.40;;
25988;SDS011;13778;48.236;9.894;2024-03-23T10:33:16;3.80;;;2.38;;
25988;SDS011;13778;48.236;9.894;2024-03-23T10:36:07;8.55;;;3.22;;
25988;SDS011;13778;48.236;9.894;2024-03-23T10:38:58;5.55;;;2.47;;
25988;SDS011;13778;48.236;9.894;2024-03-23T10:41:49;4.07;;;2.35;;
25988;SDS011;13778;48.236;9.894;2024-03-23T10:44:39;6.35;;;2.83;;
25988;SDS011;13778;48.236;9.894;2024-03-23T10:47:30;7.28;;;2.95;;
25988;SDS011;13778;48.236;9.894;2024-03-23T10:50:19;5.32;;;2.63;;
25988;SDS011;13778;48.236;9.894;2024-03-23T10:53:10;7.63;;;3.50;;
25988;SDS011;13778;48.236;9.894;2024-03-23T10:56:02;11.40;;;4.72;;
25988;SDS011;13778;48.236;9.894;2024-03-23T10:58:54;12.85;;;3.80;;
25988;SDS011;13778;48.236;9.894;2024-03-23T11:01:53;12.13;;;5.45;;
25988;SDS011;13778;48.236;9.894;2024-03-23T11:04:44;6.80;;;3.85;;
25988;SDS011;13778;48.236;9.894;2024-03-23T11:07:33;7.20;;;3.75;;
25988;SDS011;13778;48.236;9.894;2024-03-23T11:10:24;9.02;;;5.00;;
25988;SDS011;13778;48.236;9.894;2024-03-23T11:13:24;12.90;;;4.95;;
25988;SDS011;13778;48.236;9.894;2024-03-23T11:16:15;10.05;;;3.85;;
25988;SDS011;13778;48.236;9.894;2024-03-23T11:22:14;6.78;;;3.33;;
25988;SDS011;13778;48.236;9.894;2024-03-23T11:25:03;6.97;;;3.13;;
25988;SDS011;13778;48.236;9.894;2024-03-23T11:27:54;6.80;;;2.95;;
25988;SDS011;13778;48.236;9.894;2024-03-23T11:33:36;6.75;;;3.03;;
25988;SDS011;13778;48.236;9.894;2024-03-23T11:36:27;7.70;;;3.60;;
25988;SDS011;13778;48.236;9.894;2024-03-23T11:39:17;5.05;;;3.00;;
25988;SDS011;13778;48.236;9.894;2024-03-23T11:42:07;7.97;;;2.37;;
25988;SDS011;13778;48.236;9.894;2024-03-23T11:44:56;7.05;;;2.95;;
25988;SDS011;13778;48.236;9.894;2024-03-23T11:47:47;6.88;;;3.58;;
25988;SDS011;13778;48.236;9.894;2024-03-23T11:50:38;8.73;;;3.25;;
25988;SDS011;13778;48.236;9.894;2024-03-23T11:53:30;7.68;;;2.55;;
25988;SDS011;13778;48.236;9.894;2024-03-23T11:56:20;6.85;;;2.60;;
25988;SDS011;13778;48.236;9.894;2024-03-23T11:59:11;8.48;;;2.83;;
25988;SDS011;13778;48.236;9.894;2024-03-23T12:02:05;5.22;;;2.83;;
25988;SDS011;13778;48.236;9.894;2024-03-23T12:04:56;7.93;;;1.95;;
25988;SDS011;13778;48.236;9.894;2024-03-23T12:07:46;11.13;;;3.33;;
25988;SDS011;13778;48.236;9.894;2024-03-23T12:10:37;6.47;;;1.90;;
25988;SDS011;13778;48.236;9.894;2024-03-23T12:13:27;7.30;;;1.77;;
25988;SDS011;13778;48.236;9.894;2024-03-23T12:16:19;5.00;;;2.20;;
25988;SDS011;13778;48.236;9.894;2024-03-23T12:19:09;9.25;;;2.72;;
25988;SDS011;13778;48.236;9.894;2024-03-23T12:21:59;8.70;;;2.25;;
25988;SDS011;13778;48.236;9.894;2024-03-23T12:24:51;5.05;;;2.42;;
25988;SDS011;13778;48.236;9.894;2024-03-23T12:27:42;13.65;;;2.50;;
25988;SDS011;13778;48.236;9.894;2024-03-23T12:30:32;7.75;;;2.53;;
25988;SDS011;13778;48.236;9.894;2024-03-23T12:33:23;4.35;;;1.90;;
25988;SDS011;13778;48.236;9.894;2024-03-23T12:36:14;4.40;;;2.35;;
25988;SDS011;13778;48.236;9.894;2024-03-23T12:39:04;5.50;;;1.73;;
25988;SDS011;13778;48.236;9.894;2024-03-23T12:41:56;7.68;;;2.30;;
25988;SDS011;13778;48.236;9.894;2024-03-23T12:44:45;6.25;;;2.33;;
25988;SDS011;13778;48.236;9.894;2024-03-23T12:47:35;10.18;;;3.05;;
25988;SDS011;13778;48.236;9.894;2024-03-23T12:50:25;6.53;;;2.15;;
25988;SDS011;13778;48.236;9.894;2024-03-23T12:53:16;5.28;;;2.03;;
25988;SDS011;13778;48.236;9.894;2024-03-23T12:56:06;5.25;;;1.80;;
25988;SDS011;13778;48.236;9.894;2024-03-23T12:58:57;6.43;;;2.25;;
25988;SDS011;13778;48.236;9.894;2024-03-23T13:01:47;5.47;;;1.87;;
25988;SDS011;13778;48.236;9.894;2024-03-23T13:04:38;4.75;;;1.95;;
25988;SDS011;13778;48.236;9.894;2024-03-23T13:07:28;2.75;;;1.75;;
25988;SDS011;13778;48.236;9.894;2024-03-23T13:10:18;2.47;;;1.45;;
25988;SDS011;13778;48.236;9.894;2024-03-23T13:13:08;4.22;;;2.03;;
25988;SDS011;13778;48.236;9.894;2024-03-23T13:15:59;5.95;;;1.98;;
25988;SDS011;13778;48.236;9.894;2024-03-23T13:18:49;5.05;;;2.15;;
25988;SDS011;13778;48.236;9.894;2024-03-23T13:21:39;5.85;;;2.28;;
25988;SDS011;13778;48.236;9.894;2024-03-23T13:24:30;8.25;;;2.42;;
25988;SDS011;13778;48.236;9.894;2024-03-23T13:27:20;6.32;;;2.30;;
25988;SDS011;13778;48.236;9.894;2024-03-23T13:30:09;5.45;;;2.53;;
25988;SDS011;13778;48.236;9.894;2024-03-23T13:33:01;5.97;;;1.90;;
25988;SDS011;13778;48.236;9.894;2024-03-23T13:35:51;4.50;;;2.53;;
25988;SDS011;13778;48.236;9.894;2024-03-23T13:38:41;5.78;;;2.78;;
25988;SDS011;13778;48.236;9.894;2024-03-23T13:41:30;5.90;;;2.38;;
25988;SDS011;13778;48.236;9.894;2024-03-23T13:44:21;5.22;;;2.72;;
25988;SDS011;13778;48.236;9.894;2024-03-23T13:47:10;6.22;;;2.40;;
25988;SDS011;13778;48.236;9.894;2024-03-23T13:50:02;13.82;;;3.92;;
25988;SDS011;13778;48.236;9.894;2024-03-23T13:52:52;6.38;;;2.50;;
25988;SDS011;13778;48.236;9.894;2024-03-23T13:55:46;11.63;;;5.10;;
25988;SDS011;13778;48.236;9.894;2024-03-23T13:58:35;7.80;;;3.05;;
25988;SDS011;13778;48.236;9.894;2024-03-23T14:01:26;8.23;;;2.30;;
25988;SDS011;13778;48.236;9.894;2024-03-23T14:04:17;5.95;;;2.25;;
25988;SDS011;13778;48.236;9.894;2024-03-23T14:07:10;4.30;;;2.20;;
25988;SDS011;13778;48.236;9.894;2024-03-23T14:10:02;3.80;;;1.98;;
25988;SDS011;13778;48.236;9.894;2024-03-23T14:12:52;7.63;;;2.45;;
25988;SDS011;13778;48.236;9.894;2024-03-23T14:15:43;9.65;;;2.60;;
25988;SDS011;13778;48.236;9.894;2024-03-23T14:18:32;6.68;;;2.83;;
25988;SDS011;13778;48.236;9.894;2024-03-23T14:21:23;11.77;;;3.45;;
25988;SDS011;13778;48.236;9.894;2024-03-23T14:24:14;8.85;;;2.58;;
25988;SDS011;13778;48.236;9.894;2024-03-23T14:29:57;5.88;;;2.25;;
25988;SDS011;13778;48.236;9.894;2024-03-23T14:32:48;8.52;;;2.20;;
25988;SDS011;13778;48.236;9.894;2024-03-23T14:35:37;9.57;;;3.50;;
25988;SDS011;13778;48.236;9.894;2024-03-23T14:38:29;7.38;;;2.83;;
25988;SDS011;13778;48.236;9.894;2024-03-23T14:41:19;6.13;;;2.70;;
25988;SDS011;13778;48.236;9.894;2024-03-23T14:46:59;3.70;;;1.77;;
25988;SDS011;13778;48.236;9.894;2024-03-23T14:49:49;7.20;;;2.85;;
25988;SDS011;13778;48.236;9.894;2024-03-23T14:52:39;7.65;;;1.73;;
25988;SDS011;13778;48.236;9.894;2024-03-23T14:55:30;3.95;;;2.05;;
25988;SDS011;13778;48.236;9.894;2024-03-23T14:58:21;8.93;;;1.88;;
25988;SDS011;13778;48.236;9.894;2024-03-23T15:01:11;5.57;;;2.10;;
25988;SDS011;13778;48.236;9.894;2024-03-23T15:04:02;4.72;;;2.15;;
25988;SDS011;13778;48.236;9.894;2024-03-23T15:06:53;8.38;;;2.78;;
25988;SDS011;13778;48.236;9.894;2024-03-23T15:09:43;4.00;;;1.92;;
25988;SDS011;13778;48.236;9.894;2024-03-23T15:12:32;6.35;;;2.25;;
25988;SDS011;13778;48.236;9.894;2024-03-23T15:15:24;3.17;;;1.20;;
25988;SDS011;13778;48.236;9.894;2024-03-23T15:18:14;2.20;;;1.23;;
25988;SDS011;13778;48.236;9.894;2024-03-23T15:21:05;4.23;;;1.23;;
25988;SDS011;13778;48.236;9.894;2024-03-23T15:23:55;2.75;;;1.25;;
25988;SDS011;13778;48.236;9.894;2024-03-23T15:26:46;4.38;;;1.65;;
25988;SDS011;13778;48.236;9.894;2024-03-23T15:29:36;3.63;;;1.73;;
25988;SDS011;13778;48.236;9.894;2024-03-23T15:32:28;3.40;;;1.55;;
25988;SDS011;13778;48.236;9.894;2024-03-23T15:35:18;2.22;;;1.23;;
25988;SDS011;13778;48.236;9.894;2024-03-23T15:38:10;3.67;;;1.52;;
25988;SDS011;13778;48.236;9.894;2024-03-23T15:41:00;3.00;;;1.25;;
25988;SDS011;13778;48.236;9.894;2024-03-23T15:43:50;5.53;;;1.50;;
25988;SDS011;13778;48.236;9.894;2024-03-23T15:46:40;1.48;;;1.02;;
25988;SDS011;13778;48.236;9.894;2024-03-23T15:49:32;3.75;;;1.30;;
25988;SDS011;13778;48.236;9.894;2024-03-23T15:52:21;2.38;;;1.10;;
25988;SDS011;13778;48.236;9.894;2024-03-23T15:55:12;3.97;;;1.50;;
25988;SDS011;13778;48.236;9.894;2024-03-23T15:58:01;4.78;;;1.40;;
25988;SDS011;13778;48.236;9.894;2024-03-23T16:00:55;2.65;;;1.30;;
25988;SDS011;13778;48.236;9.894;2024-03-23T16:03:45;4.82;;;1.27;;
25988;SDS011;13778;48.236;9.894;2024-03-23T16:06:37;1.90;;;1.20;;
25988;SDS011;13778;48.236;9.894;2024-03-23T16:09:26;1.58;;;1.23;;
25988;SDS011;13778;48.236;9.894;2024-03-23T16:12:17;3.03;;;1.27;;
25988;SDS011;13778;48.236;9.894;2024-03-23T16:15:07;3.10;;;1.25;;
25988;SDS011;13778;48.236;9.894;2024-03-23T16:17:58;3.78;;;1.15;;
25988;SDS011;13778;48.236;9.894;2024-03-23T16:20:54;3.58;;;1.50;;
25988;SDS011;13778;48.236;9.894;2024-03-23T16:23:46;5.68;;;2.20;;
25988;SDS011;13778;48.236;9.894;2024-03-23T16:26:35;5.63;;;2.65;;
25988;SDS011;13778;48.236;9.894;2024-03-23T16:29:25;7.40;;;4.28;;
25988;SDS011;13778;48.236;9.894;2024-03-23T16:32:16;8.10;;;4.25;;
25988;SDS011;13778;48.236;9.894;2024-03-23T16:35:08;5.72;;;2.63;;
25988;SDS011;13778;48.236;9.894;2024-03-23T16:37:58;5.30;;;1.60;;
25988;SDS011;13778;48.236;9.894;2024-03-23T16:40:57;4.13;;;1.10;;
25988;SDS011;13778;48.236;9.894;2024-03-23T16:43:46;4.07;;;2.70;;
25988;SDS011;13778;48.236;9.894;2024-03-23T16:46:37;8.98;;;5.63;;
25988;SDS011;13778;48.236;9.894;2024-03-23T16:49:27;5.30;;;2.50;;
25988;SDS011;13778;48.236;9.894;2024-03-23T16:52:17;4.40;;;2.35;;
25988;SDS011;13778;48.236;9.894;2024-03-23T16:55:07;4.60;;;1.92;;
25988;SDS011;13778;48.236;9.894;2024-03-23T16:57:59;7.50;;;4.03;;
25988;SDS011;13778;48.236;9.894;2024-03-23T17:00:48;14.97;;;6.40;;
25988;SDS011;13778;48.236;9.894;2024-03-23T17:03:39;15.88;;;7.45;;
25988;SDS011;13778;48.236;9.894;2024-03-23T17:06:28;6.32;;;2.28;;
25988;SDS011;13778;48.236;9.894;2024-03-23T17:09:19;1.55;;;0.95;;
25988;SDS011;13778;48.236;9.894;2024-03-23T17:12:08;2.25;;;1.23;;
25988;SDS011;13778;48.236;9.894;2024-03-23T17:15:03;5.22;;;1.20;;
25988;SDS011;13778;48.236;9.894;2024-03-23T17:17:52;3.45;;;1.38;;
25988;SDS011;13778;48.236;9.894;2024-03-23T17:20:43;2.33;;;1.13;;
25988;SDS011;13778;48.236;9.894;2024-03-23T17:23:33;2.53;;;1.52;;
25988;SDS011;13778;48.236;9.894;2024-03-23T17:26:24;3.00;;;1.90;;
25988;SDS011;13778;48.236;9.894;2024-03-23T17:29:14;3.40;;;1.45;;
25988;SDS011;13778;48.236;9.894;2024-03-23T17:32:06;5.40;;;2.33;;
25988;SDS011;13778;48.236;9.894;2024-03-23T17:34:56;2.88;;;1.58;;
25988;SDS011;13778;48.236;9.894;2024-03-23T17:37:46;3.75;;;1.40;;
25988;SDS011;13778;48.236;9.894;2024-03-23T17:40:38;1.95;;;1.10;;
25988;SDS011;13778;48.236;9.894;2024-03-23T17:43:28;1.70;;;0.95;;
25988;SDS011;13778;48.236;9.894;2024-03-23T17:46:18;2.67;;;1.27;;
25988;SDS011;13778;48.236;9.894;2024-03-23T17:49:09;2.38;;;1.15;;
25988;SDS011;13778;48.236;9.894;2024-03-23T17:52:00;2.08;;;1.02;;
25988;SDS011;13778;48.236;9.894;2024-03-23T17:54:49;2.13;;;1.38;;
25988;SDS011;13778;48.236;9.894;2024-03-23T17:57:40;1.23;;;0.90;;
25988;SDS011;13778;48.236;9.894;2024-03-23T18:00:29;2.13;;;1.00;;
25988;SDS011;13778;48.236;9.894;2024-03-23T18:03:20;2.33;;;1.05;;
25988;SDS011;13778;48.236;9.894;2024-03-23T18:06:11;1.02;;;0.95;;
25988;SDS011;13778;48.236;9.894;2024-03-23T18:09:02;1.23;;;0.80;;
25988;SDS011;13778;48.236;9.894;2024-03-23T18:11:52;3.08;;;1.20;;
25988;SDS011;13778;48.236;9.894;2024-03-23T18:14:42;2.30;;;1.00;;
25988;SDS011;13778;48.236;9.894;2024-03-23T18:17:32;3.55;;;1.27;;
25988;SDS011;13778;48.236;9.894;2024-03-23T18:20:22;2.50;;;0.85;;
25988;SDS011;13778;48.236;9.894;2024-03-23T18:23:13;1.88;;;1.52;;
25988;SDS011;13778;48.236;9.894;2024-03-23T18:26:03;3.35;;;1.30;;